Time;durP1;ratioP1;P1;durP2;ratioP2;P2;SDS_P1;SDS_P2;PMS_P1;PMS_P2;Temp;Humidity;BMP_temperature;BMP_pressure;BME280_temperature;BME280_humidity;BME280_pressure;Samples;Min_cycle;Max_cycle;Signal;HPM_P1;HPM_P2
2022/10/28 00:02:06;;;;;;;23.50;12.05;;;;;;;;;;4952432;28;20047;-63
2022/10/28 00:04:32;;;;;;;20.13;12.18;;;;;;;;;;4977664;28;20047;-63
2022/10/28 00:06:58;;;;;;;21.30;11.95;;;;;;;;;;4951049;28;20066;-63
2022/10/28 00:09:24;;;;;;;24.92;11.95;;;;;;;;;;4969249;28;20047;-63
2022/10/28 00:11:50;;;;;;;22.83;13.00;;;;;;;;;;4949869;28;20059;-63
2022/10/28 00:14:16;;;;;;;17.13;12.23;;;;;;;;;;4954502;28;20055;-62
2022/10/28 00:16:42;;;;;;;26.50;13.30;;;;;;;;;;4953162;28;20035;-62
2022/10/28 00:19:09;;;;;;;23.63;13.55;;;;;;;;;;4973626;28;20046;-62
2022/10/28 00:21:36;;;;;;;23.63;12.95;;;;;;;;;;4955273;28;20142;-62
2022/10/28 00:24:02;;;;;;;21.30;12.52;;;;;;;;;;4960629;28;20054;-62
2022/10/28 00:26:29;;;;;;;25.50;12.40;;;;;;;;;;4957287;28;20047;-62
2022/10/28 00:28:57;;;;;;;27.15;12.35;;;;;;;;;;4957837;28;20133;-62
2022/10/28 00:31:24;;;;;;;22.52;11.77;;;;;;;;;;4960061;28;20098;-62
2022/10/28 00:33:50;;;;;;;17.52;12.45;;;;;;;;;;4973721;28;20042;-66
2022/10/28 00:36:19;;;;;;;22.55;11.57;;;;;;;;;;4957785;28;20092;-63
2022/10/28 00:38:47;;;;;;;24.02;12.35;;;;;;;;;;4958230;28;20138;-62
2022/10/28 00:41:14;;;;;;;24.77;11.90;;;;;;;;;;4953996;28;20042;-63
2022/10/28 00:43:40;;;;;;;27.70;12.23;;;;;;;;;;4958014;28;20049;-63
2022/10/28 00:46:11;;;;;;;24.67;11.90;;;;;;;;;;4940700;28;20130;-64
2022/10/28 00:48:40;;;;;;;19.83;11.63;;;;;;;;;;4956904;28;20047;-63
2022/10/28 00:51:06;;;;;;;21.25;12.00;;;;;;;;;;4975396;28;20053;-62
2022/10/28 00:53:33;;;;;;;19.55;11.43;;;;;;;;;;4958023;28;20053;-64
2022/10/28 00:56:01;;;;;;;19.48;11.52;;;;;;;;;;4942067;28;20053;-63
2022/10/28 00:58:27;;;;;;;26.48;12.43;;;;;;;;;;4957005;28;20042;-62
2022/10/28 01:00:54;;;;;;;19.48;12.13;;;;;;;;;;4939726;28;20102;-63
2022/10/28 01:03:20;;;;;;;18.02;11.07;;;;;;;;;;4957546;28;20546;-62
2022/10/28 01:05:46;;;;;;;21.90;12.25;;;;;;;;;;4957335;28;20058;-63
2022/10/28 01:08:12;;;;;;;19.08;10.48;;;;;;;;;;4961751;23;20051;-62
2022/10/28 01:10:54;;;;;;;21.58;12.38;;;;;;;;;;4967502;23;20076;-62
2022/10/28 01:13:27;;;;;;;19.58;11.88;;;;;;;;;;4969317;23;20082;-62
2022/10/28 01:15:53;;;;;;;26.85;12.13;;;;;;;;;;4961692;28;20051;-62
2022/10/28 01:18:24;;;;;;;25.15;11.88;;;;;;;;;;4972237;28;20403;-63
2022/10/28 01:21:09;;;;;;;18.58;11.35;;;;;;;;;;4956287;28;20059;-64
2022/10/28 01:23:53;;;;;;;20.80;11.38;;;;;;;;;;4956116;28;20058;-63
2022/10/28 01:26:19;;;;;;;23.35;11.93;;;;;;;;;;4942476;28;20134;-64
2022/10/28 01:28:58;;;;;;;19.67;12.00;;;;;;;;;;4955135;28;20133;-63
2022/10/28 01:31:27;;;;;;;20.38;11.40;;;;;;;;;;4965158;28;20051;-63
2022/10/28 01:34:39;;;;;;;23.48;12.85;;;14.20;99.90;;;;;;4958495;28;20189;-63
2022/10/28 01:37:14;;;;;;;22.83;11.95;;;;;;;;;;4881259;29;20075;-62
2022/10/28 01:39:58;;;;;;;22.48;10.82;;;14.20;99.90;;;;;;4880202;29;20064;-63
2022/10/28 01:42:30;;;;;;;18.38;10.90;;;;;;;;;;4890242;29;20123;-62
2022/10/28 01:45:05;;;;;;;26.10;11.60;;;;;;;;;;4883016;29;20091;-63
2022/10/28 01:47:34;;;;;;;21.45;11.35;;;;;;;;;;4896687;29;20053;-64
2022/10/28 01:50:08;;;;;;;24.83;12.40;;;;;;;;;;4880390;29;20071;-62
2022/10/28 01:52:34;;;;;;;24.98;11.77;;;;;;;;;;4865636;29;20056;-62
2022/10/28 01:55:13;;;;;;;21.90;11.82;;;;;;;;;;4884265;29;20057;-63
2022/10/28 01:57:40;;;;;;;18.83;11.90;;;;;;;;;;4868607;29;20045;-64
2022/10/28 02:00:06;;;;;;;25.63;11.77;;;;;;;;;;4877032;29;20057;-63
2022/10/28 02:02:34;;;;;;;22.58;11.25;;;;;;;;;;4892982;29;20052;-63
2022/10/28 02:05:04;;;;;;;22.27;11.55;;;;;;;;;;4889764;29;20107;-63
2022/10/28 02:07:30;;;;;;;26.63;13.00;;;;;;;;;;4881135;29;20048;-63
2022/10/28 02:09:59;;;;;;;25.42;11.52;;;;;;;;;;4883534;29;20041;-62
2022/10/28 02:12:27;;;;;;;27.20;11.52;;;;;;;;;;4915151;28;20102;-63
2022/10/28 02:15:12;;;;;;;19.25;11.93;;;;;;;;;;4926044;29;20155;-63
2022/10/28 02:17:47;;;;;;;19.13;11.32;;;;;;;;;;4937613;28;20497;-63
2022/10/28 02:20:31;;;;;;;22.63;12.05;;;;;;;;;;4937007;29;20494;-63
2022/10/28 02:23:02;;;;;;;21.55;11.88;;;;;;;;;;4952202;28;20043;-62
2022/10/28 02:25:33;;;;;;;20.20;12.07;;;;;;;;;;4951691;28;20359;-62
2022/10/28 02:28:06;;;;;;;26.85;12.00;;;;;;;;;;4954156;29;20051;-63
2022/10/28 02:30:36;;;;;;;21.70;12.43;;;;;;;;;;4922425;28;20130;-62
2022/10/28 02:33:04;;;;;;;25.02;12.00;;;;;;;;;;4942447;29;20093;-63
2022/10/28 02:35:33;;;;;;;23.17;12.65;;;;;;;;;;4952844;28;20562;-64
2022/10/28 02:38:01;;;;;;;20.80;11.40;;;;;;;;;;4935140;29;20722;-63
2022/10/28 02:40:28;;;;;;;23.73;13.45;;;;;;;;;;4934581;28;20078;-63
2022/10/28 02:43:00;;;;;;;27.17;13.70;;;;;;;;;;4918018;29;20131;-63
2022/10/28 02:45:32;;;;;;;23.20;12.25;;;;;;;;;;4931509;28;20039;-64
2022/10/28 02:47:59;;;;;;;23.48;13.52;;;;;;;;;;4921063;29;20403;-64
2022/10/28 02:50:28;;;;;;;20.17;12.15;;;;;;;;;;4954391;28;20082;-63
2022/10/28 02:52:56;;;;;;;22.80;12.43;;;;;;;;;;4954411;28;20043;-63
2022/10/28 02:55:23;;;;;;;28.02;13.52;;;;;;;;;;4939502;29;20047;-64
2022/10/28 02:57:50;;;;;;;19.35;12.48;;;;;;;;;;4943570;28;20054;-64
2022/10/28 03:00:18;;;;;;;22.42;13.70;;;;;;;;;;4939673;29;20050;-63
2022/10/28 03:02:44;;;;;;;17.80;11.57;;;;;;;;;;4925782;29;20146;-63
2022/10/28 03:05:10;;;;;;;23.17;12.95;;;;;;;;;;4923543;29;20114;-63
2022/10/28 03:07:36;;;;;;;24.05;12.43;;;;;;;;;;4942813;29;20130;-63
2022/10/28 03:10:02;;;;;;;21.13;12.07;;;;;;;;;;4948427;29;20050;-64
2022/10/28 03:12:28;;;;;;;23.58;13.85;;;;;;;;;;4948847;28;20101;-63
2022/10/28 03:14:54;;;;;;;22.38;12.50;;;;;;;;;;4970611;28;20061;-63
2022/10/28 03:17:20;;;;;;;19.65;13.15;;;;;;;;;;4953066;28;20051;-62
2022/10/28 03:19:46;;;;;;;29.30;13.13;;;;;;;;;;4971474;28;20049;-63
2022/10/28 03:22:12;;;;;;;23.20;13.15;;;;;;;;;;4953214;28;20046;-64
2022/10/28 03:24:38;;;;;;;22.25;12.90;;;;;;;;;;4953153;28;20043;-63
2022/10/28 03:27:04;;;;;;;19.20;13.07;;;;;;;;;;4954372;28;20070;-63
2022/10/28 03:29:30;;;;;;;26.45;13.82;;;;;;;;;;4969321;28;20047;-63
2022/10/28 03:31:56;;;;;;;28.13;12.68;;;;;;;;;;4975662;28;20130;-63
2022/10/28 03:34:22;;;;;;;23.95;14.10;;;;;;;;;;4954343;28;20059;-63
2022/10/28 03:36:48;;;;;;;29.88;15.55;;;;;;;;;;4953884;28;20047;-64
2022/10/28 03:39:14;;;;;;;27.30;14.48;;;;;;;;;;4954903;28;20484;-63
2022/10/28 03:41:40;;;;;;;25.35;14.02;;;;;;;;;;4971000;28;20054;-63
2022/10/28 03:44:06;;;;;;;30.38;14.95;;;;;;;;;;4953233;28;20134;-63
2022/10/28 03:46:32;;;;;;;26.60;14.07;;;;;;;;;;4976322;28;20130;-62
2022/10/28 03:48:58;;;;;;;25.23;14.05;;;;;;;;;;4976313;28;20046;-65
2022/10/28 03:51:24;;;;;;;28.20;14.82;;;;;;;;;;4946720;28;20400;-63
2022/10/28 03:53:50;;;;;;;26.40;15.25;;;;;;;;;;4937876;28;20046;-64
2022/10/28 03:56:16;;;;;;;28.50;14.20;;;;;;;;;;4947429;28;20125;-63
2022/10/28 03:58:42;;;;;;;23.23;13.95;;;;;;;;;;4957988;28;20047;-64
2022/10/28 04:01:08;;;;;;;27.70;15.20;;;;;;;;;;4977037;28;20047;-63
2022/10/28 04:03:34;;;;;;;28.90;15.18;;;;;;;;;;4948458;28;20093;-63
2022/10/28 04:06:00;;;;;;;25.83;14.65;;;;;;;;;;4956754;28;20051;-64
2022/10/28 04:08:26;;;;;;;26.40;14.45;;;;;;;;;;4970093;28;20407;-64
2022/10/28 04:10:52;;;;;;;31.05;14.95;;;;;;;;;;4944273;28;20050;-63
2022/10/28 04:13:18;;;;;;;29.63;16.15;;;;;;;;;;4976472;28;20062;-63
2022/10/28 04:15:44;;;;;;;27.10;14.65;;;;;;;;;;4975629;28;20047;-63
2022/10/28 04:18:11;;;;;;;25.30;13.98;;;;;;;;;;4956550;28;20189;-63
2022/10/28 04:20:37;;;;;;;27.50;14.55;;;;;;;;;;4942117;28;20053;-64
2022/10/28 04:23:03;;;;;;;26.48;15.15;;;;;;;;;;4955631;28;20133;-63
2022/10/28 04:25:29;;;;;;;28.55;15.45;;;;;;;;;;4959969;28;20047;-62
2022/10/28 04:27:55;;;;;;;25.13;14.35;;;;;;;;;;4941356;28;20047;-62
2022/10/28 04:30:21;;;;;;;31.65;16.23;;;;;;;;;;4975406;28;20046;-64
2022/10/28 04:32:47;;;;;;;26.35;15.43;;;;;;;;;;4958103;28;20047;-63
2022/10/28 04:35:13;;;;;;;25.75;14.25;;;;;;;;;;4956352;28;20057;-63
2022/10/28 04:37:40;;;;;;;30.05;16.02;;;;;;;;;;4958545;28;20392;-63
2022/10/28 04:40:07;;;;;;;25.38;15.80;;;;;;;;;;4952830;28;20049;-62
2022/10/28 04:42:33;;;;;;;27.98;14.88;;;;;;;;;;4942514;28;20411;-63
2022/10/28 04:44:59;;;;;;;28.85;15.23;;;;;;;;;;4957693;28;20085;-62
2022/10/28 04:47:25;;;;;;;28.45;15.20;;;;;;;;;;4940374;28;20129;-63
2022/10/28 04:49:51;;;;;;;26.98;15.15;;;;;;;;;;4955155;28;20105;-63
2022/10/28 04:52:17;;;;;;;30.92;14.98;;;;;;;;;;4944330;28;20543;-63
2022/10/28 04:54:43;;;;;;;30.10;15.07;;;;;;;;;;4934377;23;20203;-63
2022/10/28 04:57:09;;;;;;;26.77;15.50;;;;;;;;;;5092909;23;20055;-63
2022/10/28 04:59:36;;;;;;;28.88;16.40;;;;;;;;;;4956419;29;20055;-63
2022/10/28 05:02:02;;;;;;;30.13;15.30;;;;;;;;;;4937000;29;20126;-63
2022/10/28 05:04:28;;;;;;;26.30;16.05;;;;;;;;;;4938441;29;20047;-64
2022/10/28 05:06:54;;;;;;;30.90;15.73;;;;;;;;;;4938735;29;20150;-64
2022/10/28 05:09:20;;;;;;;27.52;16.10;;;;;;;;;;4929916;28;20047;-63
2022/10/28 05:11:46;;;;;;;28.80;15.48;;;;;;;;;;4933136;29;20054;-63
2022/10/28 05:14:12;;;;;;;29.08;15.57;;;;;;;;;;4946591;28;20092;-63
2022/10/28 05:16:38;;;;;;;29.20;15.88;;;;;;;;;;4941721;29;20523;-63
2022/10/28 05:19:04;;;;;;;28.73;14.57;;;;;;;;;;4955619;29;20058;-64
2022/10/28 05:21:30;;;;;;;24.60;14.63;;;;;;;;;;4953582;29;20051;-63
2022/10/28 05:23:56;;;;;;;30.38;15.73;;;;;;;;;;4937970;29;20448;-63
2022/10/28 05:26:22;;;;;;;26.45;15.02;;;;;;;;;;4953038;28;20039;-63
2022/10/28 05:28:51;;;;;;;29.83;16.38;;;;;;;;;;4955824;29;20126;-63
2022/10/28 05:31:18;;;;;;;28.13;15.15;;;;;;;;;;4936648;29;20050;-62
2022/10/28 05:33:44;;;;;;;27.10;14.65;;;;;;;;;;4938498;29;20467;-63
2022/10/28 05:36:10;;;;;;;26.35;14.88;;;;;;;;;;4955482;29;20047;-62
2022/10/28 05:38:36;;;;;;;26.05;14.85;;;;;;;;;;4921414;29;20075;-63
2022/10/28 05:41:02;;;;;;;28.83;14.88;;;;;;;;;;4953116;29;20047;-62
2022/10/28 05:43:29;;;;;;;25.45;14.48;;;;;;;;;;4936960;29;20043;-62
2022/10/28 05:45:55;;;;;;;23.90;14.52;;;;;;;;;;4937947;29;20051;-62
2022/10/28 05:48:21;;;;;;;27.95;14.52;;;;;;;;;;4955407;29;20058;-63
2022/10/28 05:50:47;;;;;;;25.73;14.68;;;;;;;;;;4952967;29;20051;-63
2022/10/28 05:53:14;;;;;;;25.73;14.38;;;;;;;;;;4924307;28;20047;-63
2022/10/28 05:55:40;;;;;;;29.55;14.32;;;;;;;;;;4920123;28;20083;-63
2022/10/28 05:58:06;;;;;;;26.00;14.77;;;;;;;;;;4909020;29;20055;-63
2022/10/28 06:00:32;;;;;;;27.23;14.23;;;;;;;;;;4934809;28;20055;-64
2022/10/28 06:03:02;;;;;;;29.35;15.02;;;;;;;;;;4931155;29;20087;-63
2022/10/28 06:05:28;;;;;;;;;;;13.70;99.90;;;;;;4919802;28;20043;-64
2022/10/28 06:07:54;;;;;;;27.10;13.30;;;;;;;;;;4920702;29;19930;-63
2022/10/28 06:10:20;;;;;;;27.75;14.15;;;;;;;;;;4935851;29;20051;-64
2022/10/28 06:12:46;;;;;;;24.58;13.27;;;;;;;;;;4919550;29;20055;-63
2022/10/28 06:15:12;;;;;;;24.60;12.50;;;;;;;;;;4936500;29;20062;-63
2022/10/28 06:17:38;;;;;;;25.15;12.98;;;;;;;;;;4912578;28;20039;-64
2022/10/28 06:20:05;;;;;;;29.05;14.50;;;;;;;;;;4932474;29;20110;-64
2022/10/28 06:22:31;;;;;;;30.67;13.20;;;;;;;;;;4937852;29;20447;-64
2022/10/28 06:24:57;;;;;;;27.25;13.70;;;;;;;;;;4954003;29;20047;-63
2022/10/28 06:27:23;;;;;;;24.02;13.00;;;;;;;;;;4951334;29;20102;-64
2022/10/28 06:29:49;;;;;;;25.83;14.00;;;;;;;;;;4937503;29;20054;-64
2022/10/28 06:32:15;;;;;;;27.50;13.32;;;;;;;;;;4920326;29;20081;-63
2022/10/28 06:34:41;;;;;;;23.92;13.82;;;;;;;;;;4918478;29;20087;-63
2022/10/28 06:37:09;;;;;;;23.05;12.23;;;;;;;;;;4925788;29;20467;-65
2022/10/28 06:39:37;;;;;;;26.60;12.60;;;;;;;;;;4930037;29;20114;-63
2022/10/28 06:42:03;;;;;;;28.35;12.77;;;;;;;;;;4942700;29;20512;-62
2022/10/28 06:44:29;;;;;;;26.85;13.20;;;;;;;;;;4930187;29;20087;-62
2022/10/28 06:46:55;;;;;;;29.33;13.02;;;;;;;;;;4915507;29;20130;-63
2022/10/28 06:49:21;;;;;;;20.77;11.63;;;;;;;;;;4934870;28;20059;-64
2022/10/28 06:51:48;;;;;;;22.70;12.07;;;;;;;;;;4950941;28;20412;-62
2022/10/28 06:54:14;;;;;;;28.35;13.02;;;;;;;;;;4930448;29;20106;-63
2022/10/28 06:56:40;;;;;;;26.65;12.82;;;;;;;;;;4934326;28;20488;-63
2022/10/28 06:59:06;;;;;;;22.58;12.10;;;;;;;;;;4902235;29;20094;-63
2022/10/28 07:01:32;;;;;;;19.30;11.73;;;;;;;;;;4917935;29;20060;-63
2022/10/28 07:03:58;;;;;;;20.15;11.75;;;;;;;;;;4944489;28;20212;-63
2022/10/28 07:06:24;;;;;;;22.92;11.35;;;;;;;;;;4924169;29;21318;-63
2022/10/28 07:08:51;;;;;;;22.83;11.48;;;;;;;;;;4934683;28;20527;-64
2022/10/28 07:11:17;;;;;;;22.02;11.57;;;;;;;;;;4904288;29;20094;-63
2022/10/28 07:13:43;;;;;;;27.42;12.15;;;;;;;;;;4922790;29;20051;-62
2022/10/28 07:16:09;;;;;;;23.88;11.95;;;;;;;;;;4929241;28;20288;-63
2022/10/28 07:18:35;;;;;;;27.63;11.52;;;;;;;;;;4938427;28;20179;-64
2022/10/28 07:21:02;;;;;;;24.10;11.60;;;;;;;;;;4929598;29;20047;-63
2022/10/28 07:23:31;;;;;;;18.83;10.50;;;;;;;;;;4925064;28;20048;-63
2022/10/28 07:25:57;;;;;;;23.80;11.05;;;;;;;;;;4935086;29;20051;-63
2022/10/28 07:28:24;;;;;;;22.65;10.98;;;;;;;;;;4936782;28;20054;-64
2022/10/28 07:30:50;;;;;;;21.33;10.52;;;;;;;;;;4942851;28;20058;-67
2022/10/28 07:33:16;;;;;;;22.25;10.70;;;;;;;;;;4917640;29;20056;-64
2022/10/28 07:35:43;;;;;;;20.17;10.35;;;;;;;;;;4930826;29;20075;-63
2022/10/28 07:38:09;;;;;;;19.80;10.07;;;;;;;;;;4909288;29;20047;-63
2022/10/28 07:40:35;;;;;;;23.48;11.23;;;;;;;;;;4924606;29;20059;-63
2022/10/28 07:43:01;;;;;;;22.85;10.02;;;;;;;;;;4918239;29;20492;-64
2022/10/28 07:45:27;;;;;;;19.63;10.98;;;;;;;;;;4926388;29;20047;-64
2022/10/28 07:47:53;;;;;;;17.20;9.32;;;;;;;;;;4926274;29;20058;-63
2022/10/28 07:50:19;;;;;;;24.08;10.00;;;;;;;;;;4917507;29;20048;-63
2022/10/28 07:52:45;;;;;;;18.38;11.18;;;;;;;;;;4941729;28;20074;-63
2022/10/28 07:55:11;;;;;;;25.65;9.35;;;;;;;;;;4941531;28;20039;-63
2022/10/28 07:57:38;;;;;;;18.38;9.63;;;;;;;;;;4929292;29;20055;-63
2022/10/28 08:00:05;;;;;;;14.55;9.38;;;;;;;;;;4929519;28;20090;-63
2022/10/28 08:02:31;;;;;;;18.08;9.80;;;;;;;;;;4920385;28;20052;-63
2022/10/28 08:04:58;;;;;;;21.23;9.98;;;;;;;;;;4935872;29;20412;-63
2022/10/28 08:07:25;;;;;;;19.92;9.20;;;;;;;;;;4945887;28;20058;-64
2022/10/28 08:09:52;;;;;;;17.98;8.95;;;;;;;;;;4929792;29;20047;-64
2022/10/28 08:12:18;;;;;;;18.88;8.10;;;;;;;;;;4926876;29;20051;-64
2022/10/28 08:14:44;;;;;;;16.00;8.85;;;;;;;;;;4923666;28;20052;-64
2022/10/28 08:17:10;;;;;;;14.55;8.65;;;;;;;;;;4920579;28;20081;-63
2022/10/28 08:19:36;;;;;;;18.25;9.02;;;;;;;;;;4903030;28;20040;-63
2022/10/28 08:22:02;;;;;;;20.73;8.25;;;;;;;;;;4918752;28;20051;-63
2022/10/28 08:24:28;;;;;;;18.02;8.75;;;;;;;;;;4914437;28;20043;-66
2022/10/28 08:26:55;;;;;;;20.08;8.43;;;;;;;;;;4904369;28;20081;-64
2022/10/28 08:29:21;;;;;;;20.30;8.50;;;;;;;;;;4928017;28;20460;-63
2022/10/28 08:31:47;;;;;;;12.07;7.22;;;;;;;;;;4889797;28;20062;-63
2022/10/28 08:34:13;;;;;;;22.67;8.93;;;;;;;;;;4922265;28;20050;-62
2022/10/28 08:36:39;;;;;;;18.38;7.20;;;;;;;;;;4926284;29;20039;-65
2022/10/28 08:39:05;;;;;;;24.08;9.13;;;;;;;;;;4926734;29;20102;-63
2022/10/28 08:41:36;;;;;;;14.52;7.80;;;;;;;;;;4930857;23;20058;-61
2022/10/28 08:44:14;;;;;;;20.95;7.88;;;;;;;;;;4951764;23;20131;-62
2022/10/28 08:46:59;;;;;;;19.08;8.13;;;;;;;;;;4935005;28;20057;-62
2022/10/28 08:49:25;;;;;;;16.70;7.35;;;;;;;;;;4935639;29;20507;-62
2022/10/28 08:51:54;;;;;;;16.02;8.95;;;;;;;;;;4937327;29;20043;-62
2022/10/28 08:54:24;;;;;;;18.02;7.00;;;;;;;;;;4938812;29;20063;-62
2022/10/28 08:56:53;;;;;;;15.40;7.55;;;;;;;;;;4955705;29;20138;-63
2022/10/28 08:59:26;;;;;;;18.30;7.45;;;;;;;;;;4936231;29;20051;-62
2022/10/28 09:01:56;;;;;;;18.13;6.93;;;;;;;;;;4942152;28;20152;-62
2022/10/28 09:04:26;;;;;;;16.65;6.75;;;;;;;;;;4957216;23;20397;-62
2022/10/28 09:06:52;;;;;;;;;;;16.00;99.90;;;;;;4941345;28;20119;-62
2022/10/28 09:09:20;;;;;;;17.90;6.95;;;;;;;;;;4929542;29;19945;-61
2022/10/28 09:11:46;;;;;;;13.65;6.28;;;;;;;;;;4951322;28;20055;-62
2022/10/28 09:14:23;;;;;;;15.40;6.63;;;;;;;;;;4936199;28;20377;-62
2022/10/28 09:17:07;;;;;;;17.17;6.88;;;;;;;;;;4948523;28;20508;-61
2022/10/28 09:19:45;;;;;;;19.30;8.82;;;;;;;;;;4953838;28;20130;-61
2022/10/28 09:22:11;;;;;;;20.52;7.53;;;;;;;;;;4949738;28;20040;-62
2022/10/28 09:24:37;;;;;;;14.98;6.13;;;;;;;;;;4951394;28;20054;-63
2022/10/28 09:27:09;;;;;;;12.02;6.43;;;;;;;;;;4949733;28;20043;-62
2022/10/28 09:29:44;;;;;;;20.02;7.32;;;;;;;;;;4949830;28;20047;-63
2022/10/28 09:32:16;;;;;;;13.73;5.90;;;;;;;;;;4951633;28;20563;-63
2022/10/28 09:34:46;;;;;;;14.80;5.75;;;;;;;;;;4946704;28;20051;-62
2022/10/28 09:37:24;;;;;;;13.40;6.20;;;;;;;;;;4948090;28;20058;-62
2022/10/28 09:39:52;;;;;;;16.77;6.43;;;;;;;;;;4953356;28;20378;-64
2022/10/28 09:42:25;;;;;;;15.02;6.68;;;;;;;;;;4951403;28;20129;-63
2022/10/28 09:44:54;;;;;;;14.60;6.50;;;;;;;;;;4930777;29;20055;-64
2022/10/28 09:47:35;;;;;;;17.88;6.03;;;;;;;;;;4945587;28;20408;-63
2022/10/28 09:50:03;;;;;;;16.38;5.93;;;;;;;;;;4918801;29;20044;-63
2022/10/28 09:52:32;;;;;;;17.25;6.85;;;;;;;;;;4935258;29;20036;-63
2022/10/28 09:55:02;;;;;;;14.88;6.30;;;;;;;;;;4946742;28;20055;-63
2022/10/28 09:57:30;;;;;;;14.57;5.73;;;;;;;;;;4944516;29;20115;-63
2022/10/28 09:59:56;;;;;;;13.23;5.75;;;;;;;;;;4945109;28;20390;-63
2022/10/28 10:02:32;;;;;;;16.65;6.10;;;;;;;;;;4949769;29;20158;-63
2022/10/28 10:05:00;;;;;;;9.93;5.90;;;;;;;;;;4948637;29;20074;-62
2022/10/28 10:07:34;;;;;;;13.60;5.30;;;;;;;;;;4937344;29;20086;-63
2022/10/28 10:10:01;;;;;;;13.02;6.28;;;;;;;;;;4953406;28;20044;-63
2022/10/28 10:12:28;;;;;;;14.73;6.03;;;;;;;;;;4947497;28;20071;-63
2022/10/28 10:14:56;;;;;;;12.35;5.32;;;;;;;;;;4952749;29;20136;-64
2022/10/28 10:17:25;;;;;;;15.77;5.53;;;;;;;;;;4957588;28;20047;-63
2022/10/28 10:20:08;;;;;;;28.63;8.65;;;;;;;;;;4952489;29;20416;-64
2022/10/28 10:22:38;;;;;;;14.82;5.82;;;;;;;;;;4953688;29;20039;-63
2022/10/28 10:25:21;;;;;;;17.05;6.28;;;;;;;;;;4936888;29;20051;-63
2022/10/28 10:28:14;;;;;;;17.45;5.65;;;;;;;;;;4933389;29;20051;-62
2022/10/28 10:30:52;;;;;;;14.63;5.80;;;;;;;;;;4924710;29;20503;-63
2022/10/28 10:33:20;;;;;;;15.57;5.03;;;;;;;;;;4934772;29;20047;-63
2022/10/28 10:35:53;;;;;;;17.13;5.32;;;;;;;;;;4953512;28;20098;-64
2022/10/28 10:38:19;;;;;;;11.75;5.28;;;;;;;;;;4954478;28;20038;-63
2022/10/28 10:40:49;;;;;;;15.50;5.07;;;;;;;;;;4950323;28;20039;-63
2022/10/28 10:43:31;;;;;;;;;;;18.60;99.90;;;;;;4941407;29;20039;-63
2022/10/28 10:46:02;;;;;;;15.52;6.00;;;;;;;;;;4937235;29;19922;-64
2022/10/28 10:48:31;;;;;;;13.52;6.07;;;;;;;;;;4937031;29;20054;-63
2022/10/28 10:50:57;;;;;;;18.33;5.95;;;;;;;;;;4936324;28;20059;-63
2022/10/28 10:53:24;;;;;;;14.60;5.25;;;;;;;;;;4958953;28;20122;-63
2022/10/28 10:55:52;;;;;;;13.45;5.28;;;;;;;;;;4951578;29;20094;-64
2022/10/28 10:58:22;;;;;;;9.48;4.60;;;19.20;99.90;;;;;;4935060;29;20071;-64
2022/10/28 11:00:49;;;;;;;12.93;5.10;;;;;;;;;;4943422;29;20134;-63
2022/10/28 11:03:21;;;;;;;11.70;4.68;;;;;;;;;;4952514;28;20051;-63
2022/10/28 11:05:48;;;;;;;16.88;6.93;;;;;;;;;;4972272;28;20055;-63
2022/10/28 11:08:23;;;;;;;12.85;5.78;;;;;;;;;;4938472;28;20057;-63
2022/10/28 11:11:02;;;;;;;10.20;4.97;;;;;;;;;;4973274;28;20054;-63
2022/10/28 11:13:28;;;;;;;11.93;4.72;;;;;;;;;;4954962;28;20082;-64
2022/10/28 11:16:04;;;;;;;15.48;5.07;;;;;;;;;;4937065;28;20055;-63
2022/10/28 11:18:39;;;;;;;13.38;4.78;;;;;;;;;;4939634;28;20160;-63
2022/10/28 11:21:08;;;;;;;14.10;6.10;;;;;;;;;;4939282;28;20093;-65
2022/10/28 11:23:45;;;;;;;15.23;4.90;;;;;;;;;;4940631;28;20145;-64
2022/10/28 11:26:14;;;;;;;16.05;5.55;;;19.50;99.90;;;;;;4939191;28;20054;-64
2022/10/28 11:28:49;;;;;;;15.05;5.10;;;19.90;99.90;;;;;;4972953;28;20122;-63
2022/10/28 11:31:36;;;;;;;18.25;5.28;;;20.10;99.90;;;;;;4935131;28;20055;-63
2022/10/28 11:34:38;;;;;;;11.98;4.93;;;19.90;99.90;;;;;;4970467;28;20054;-64
2022/10/28 11:37:22;;;;;;;17.95;4.95;;;;;;;;;;4939762;28;20054;-63
2022/10/28 11:39:54;;;;;;;14.52;5.55;;;;;;;;;;4953526;28;20089;-64
2022/10/28 11:42:41;;;;;;;15.60;5.35;;;;;;;;;;4952416;28;20046;-64
2022/10/28 11:45:28;;;;;;;13.20;5.10;;;19.70;99.90;;;;;;4930465;28;20043;-65
2022/10/28 11:48:17;;;;;;;17.50;5.13;;;;;;;;;;4954622;28;20054;-64
2022/10/28 11:50:52;;;;;;;12.23;5.13;;;;;;;;;;4936369;28;20093;-64
2022/10/28 11:53:45;;;;;;;11.80;5.72;;;19.90;99.90;;;;;;4954764;28;20038;-63
2022/10/28 11:56:30;;;;;;;16.55;5.35;;;19.80;99.90;;;;;;4954887;28;20043;-63
2022/10/28 11:59:24;;;;;;;19.60;6.00;;;19.60;99.90;;;;;;4970514;28;20043;-64
2022/10/28 12:02:18;;;;;;;13.82;4.97;;;19.80;99.90;;;;;;4937384;28;20046;-68
2022/10/28 12:05:15;;;;;;;19.05;6.47;;;19.90;99.90;;;;;;4944991;28;20484;-64
2022/10/28 12:07:53;;;;;;;15.27;6.30;;;;;;;;;;4972568;28;20069;-65
2022/10/28 12:10:38;;;;;;;14.52;6.35;;;19.70;99.90;;;;;;4952450;28;20049;-63
2022/10/28 12:13:16;;;;;;;20.23;5.95;;;;;;;;;;4956050;28;20042;-65
2022/10/28 12:15:58;;;;;;;11.70;5.63;;;19.60;99.90;;;;;;4943458;28;20047;-66
2022/10/28 12:18:47;;;;;;;12.10;5.80;;;19.80;99.90;;;;;;4956918;28;20051;-58
2022/10/28 12:21:25;;;;;;;12.77;5.50;;;19.80;99.90;;;;;;4957358;28;20039;-72
2022/10/28 12:23:52;;;;;;;17.58;6.20;;;;;;;;;;4953410;28;20130;-64
2022/10/28 12:26:20;;;;;;;17.00;5.85;;;20.00;99.90;;;;;;4984798;28;20054;-62
2022/10/28 12:28:51;;;;;;;14.55;6.65;;;;;;;;;;4978262;28;20415;-63
2022/10/28 12:31:29;;;;;;;15.65;5.50;;;;;;;;;;4957942;28;20054;-63
2022/10/28 12:33:57;;;;;;;13.63;6.10;;;;;;;;;;4959028;28;20511;-64
2022/10/28 12:36:30;;;;;;;19.38;6.95;;;;;;;;;;4953425;28;20074;-65
2022/10/28 12:39:01;;;;;;;20.73;6.30;;;;;;;;;;4982442;23;20058;-64
2022/10/28 12:41:27;;;;;;;;;;;;;;;;;;4949696;28;20133;-64
2022/10/28 12:44:08;;;;;;;16.55;5.25;;;20.20;99.90;;;;;;4958392;28;20383;-65
2022/10/28 12:46:47;;;;;;;18.48;6.32;;;20.00;99.90;;;;;;4954819;28;20522;-64
2022/10/28 12:49:50;;;;;;;14.43;5.60;;;19.90;99.90;;;;;;4954909;28;20137;-64
2022/10/28 12:52:35;;;;;;;14.18;5.63;;;19.90;99.90;;;;;;4948725;28;20137;-64
2022/10/28 12:55:17;;;;;;;13.32;6.95;;;;;;;;;;4945098;28;20053;-65
2022/10/28 12:58:11;;;;;;;20.70;5.88;;;20.40;99.90;;;;;;4958264;28;20046;-64
2022/10/28 13:00:43;;;;;;;15.77;5.47;;;20.60;99.90;;;;;;4876693;29;20075;-64
2022/10/28 13:03:13;;;;;;;13.35;5.38;;;20.70;99.90;;;;;;4862747;29;20067;-64
2022/10/28 13:05:42;;;;;;;15.70;5.07;;;20.30;99.90;;;;;;4857271;29;20064;-65
2022/10/28 13:08:26;;;;;;;15.40;5.32;;;20.60;99.90;;;;;;4861593;29;20581;-64
2022/10/28 13:10:56;;;;;;;18.75;5.78;;;20.60;99.90;;;;;;4862587;29;20104;-64
2022/10/28 13:13:44;;;;;;;13.75;5.45;;;20.20;99.90;;;;;;4860171;29;20105;-64
2022/10/28 13:16:20;;;;;;;15.65;5.30;;;;;;;;;;4882829;29;20045;-64
2022/10/28 13:18:58;;;;;;;12.43;5.35;;;;;;;;;;4869252;29;20049;-65
2022/10/28 13:21:24;;;;;;;15.65;5.05;;;;;;;;;;4883508;29;20959;-65
2022/10/28 13:24:09;;;;;;;12.27;5.32;;;;;;;;;;4881699;29;21600;-66
2022/10/28 13:26:36;;;;;;;20.10;7.20;;;20.00;99.90;;;;;;4867337;29;20048;-65
2022/10/28 13:29:06;;;;;;;15.57;6.43;;;;;;;;;;4865900;29;20057;-64
2022/10/28 13:31:42;;;;;;;15.87;6.27;;;;;;;;;;4867787;29;20116;-64
2022/10/28 13:34:08;;;;;;;16.77;5.90;;;;;;;;;;4886878;29;20706;-65
2022/10/28 13:36:39;;;;;;;19.98;6.20;;;20.10;99.90;;;;;;4893090;28;20184;-64
2022/10/28 13:39:22;;;;;;;14.20;5.05;;;20.00;99.90;;;;;;4948489;28;20414;-64
2022/10/28 13:41:47;;;;;;;14.65;5.65;;;20.10;99.90;;;;;;4968085;28;20050;-63
2022/10/28 13:44:13;;;;;;;15.55;6.22;;;;;;;;;;4950499;28;20125;-64
2022/10/28 13:46:58;;;;;;;13.90;5.93;;;;;;;;;;4945836;28;20070;-65
2022/10/28 13:49:31;;;;;;;21.67;6.60;;;;;;;;;;4982947;28;20054;-64
2022/10/28 13:52:00;;;;;;;17.52;5.97;;;;;;;;;;4944178;28;20083;-64
2022/10/28 13:54:28;;;;;;;21.77;5.50;;;;;;;;;;4964370;28;20058;-64
2022/10/28 13:57:00;;;;;;;19.13;6.13;;;19.50;99.90;;;;;;4946243;28;20082;-64
2022/10/28 13:59:28;;;;;;;14.02;4.93;;;;;;;;;;4950081;28;20051;-63
2022/10/28 14:01:56;;;;;;;17.33;4.82;;;;;;;;;;4924893;28;20526;-63
2022/10/28 14:04:22;;;;;;;17.75;4.60;;;;;;;;;;4968038;28;20046;-64
2022/10/28 14:06:48;;;;;;;15.82;5.85;;;;;;;;;;4953933;28;20082;-63
2022/10/28 14:09:21;;;;;;;16.42;4.72;;;;;;;;;;4970469;28;20047;-64
2022/10/28 14:12:02;;;;;;;19.95;5.35;;;;;;;;;;4957195;28;20053;-64
2022/10/28 14:14:28;;;;;;;11.68;4.57;;;;;;;;;;4957349;28;20043;-63
2022/10/28 14:16:54;;;;;;;15.23;5.25;;;;;;;;;;4970330;28;20051;-64
2022/10/28 14:19:22;;;;;;;20.33;6.15;;;;;;;;;;4950185;28;20126;-64
2022/10/28 14:22:00;;;;;;;13.95;5.13;;;19.40;99.90;;;;;;4956450;28;20062;-64
2022/10/28 14:24:40;;;;;;;20.80;6.43;;;;;;;;;;4955603;28;20078;-64
2022/10/28 14:27:10;;;;;;;16.53;5.20;;;;;;;;;;4956416;28;20049;-65
2022/10/28 14:29:59;;;;;;;;;;;19.40;99.90;;;;;;4945299;29;20122;-63